sensor_id;sensor_type;location;lat;lon;timestamp;P1;durP1;ratioP1;P2;durP2;ratioP2
31652;SDS011;18261;53.648;9.910;2022-10-15T00:00:04;24.98;;;16.48;;
31652;SDS011;18261;53.648;9.910;2022-10-15T00:02:30;24.63;;;15.95;;
31652;SDS011;18261;53.648;9.910;2022-10-15T00:04:56;28.95;;;17.08;;
31652;SDS011;18261;53.648;9.910;2022-10-15T00:07:22;30.33;;;16.90;;
31652;SDS011;18261;53.648;9.910;2022-10-15T00:09:49;30.17;;;17.75;;
31652;SDS011;18261;53.648;9.910;2022-10-15T00:12:15;29.10;;;17.20;;
31652;SDS011;18261;53.648;9.910;2022-10-15T00:14:41;35.30;;;18.45;;
31652;SDS011;18261;53.648;9.910;2022-10-15T00:17:07;32.05;;;19.02;;
31652;SDS011;18261;53.648;9.910;2022-10-15T00:19:33;28.45;;;19.00;;
31652;SDS011;18261;53.648;9.910;2022-10-15T00:21:59;30.65;;;18.42;;
31652;SDS011;18261;53.648;9.910;2022-10-15T00:24:26;28.73;;;18.90;;
31652;SDS011;18261;53.648;9.910;2022-10-15T00:26:52;32.50;;;20.13;;
31652;SDS011;18261;53.648;9.910;2022-10-15T00:29:17;33.50;;;19.85;;
31652;SDS011;18261;53.648;9.910;2022-10-15T00:31:43;44.38;;;20.80;;
31652;SDS011;18261;53.648;9.910;2022-10-15T00:34:09;32.65;;;20.30;;
31652;SDS011;18261;53.648;9.910;2022-10-15T00:36:36;33.80;;;21.08;;
31652;SDS011;18261;53.648;9.910;2022-10-15T00:39:03;29.70;;;19.80;;
31652;SDS011;18261;53.648;9.910;2022-10-15T00:41:31;29.73;;;19.48;;
31652;SDS011;18261;53.648;9.910;2022-10-15T00:44:01;33.28;;;22.00;;
31652;SDS011;18261;53.648;9.910;2022-10-15T00:49:16;34.63;;;21.60;;
31652;SDS011;18261;53.648;9.910;2022-10-15T00:51:41;34.88;;;22.23;;
31652;SDS011;18261;53.648;9.910;2022-10-15T00:54:08;34.42;;;23.63;;
31652;SDS011;18261;53.648;9.910;2022-10-15T00:56:35;40.83;;;24.58;;
31652;SDS011;18261;53.648;9.910;2022-10-15T00:59:02;39.50;;;26.95;;
31652;SDS011;18261;53.648;9.910;2022-10-15T01:01:29;43.47;;;26.50;;
31652;SDS011;18261;53.648;9.910;2022-10-15T01:03:55;46.50;;;27.77;;
31652;SDS011;18261;53.648;9.910;2022-10-15T01:06:21;42.35;;;27.85;;
31652;SDS011;18261;53.648;9.910;2022-10-15T01:08:48;44.67;;;28.23;;
31652;SDS011;18261;53.648;9.910;2022-10-15T01:11:33;46.30;;;29.05;;
31652;SDS011;18261;53.648;9.910;2022-10-15T01:19:21;44.38;;;28.98;;
31652;SDS011;18261;53.648;9.910;2022-10-15T01:21:55;41.03;;;28.15;;
31652;SDS011;18261;53.648;9.910;2022-10-15T01:27:08;47.42;;;29.35;;
31652;SDS011;18261;53.648;9.910;2022-10-15T01:32:23;50.20;;;31.33;;
31652;SDS011;18261;53.648;9.910;2022-10-15T01:35:12;48.30;;;31.35;;
31652;SDS011;18261;53.648;9.910;2022-10-15T01:37:58;47.00;;;30.48;;
31652;SDS011;18261;53.648;9.910;2022-10-15T01:42:51;43.53;;;29.85;;
31652;SDS011;18261;53.648;9.910;2022-10-15T01:45:19;45.80;;;31.15;;
31652;SDS011;18261;53.648;9.910;2022-10-15T01:47:47;52.53;;;31.30;;
31652;SDS011;18261;53.648;9.910;2022-10-15T01:50:14;51.20;;;32.78;;
31652;SDS011;18261;53.648;9.910;2022-10-15T01:52:42;51.17;;;33.40;;
31652;SDS011;18261;53.648;9.910;2022-10-15T01:55:09;52.28;;;33.58;;
31652;SDS011;18261;53.648;9.910;2022-10-15T01:57:36;56.53;;;32.95;;
31652;SDS011;18261;53.648;9.910;2022-10-15T02:00:03;49.75;;;33.08;;
31652;SDS011;18261;53.648;9.910;2022-10-15T02:02:29;54.67;;;34.10;;
31652;SDS011;18261;53.648;9.910;2022-10-15T02:04:55;49.47;;;32.97;;
31652;SDS011;18261;53.648;9.910;2022-10-15T02:07:31;53.58;;;33.65;;
31652;SDS011;18261;53.648;9.910;2022-10-15T02:10:18;56.15;;;34.08;;
31652;SDS011;18261;53.648;9.910;2022-10-15T02:17:54;53.25;;;34.85;;
31652;SDS011;18261;53.648;9.910;2022-10-15T02:20:22;57.35;;;36.30;;
31652;SDS011;18261;53.648;9.910;2022-10-15T02:22:52;59.33;;;36.45;;
31652;SDS011;18261;53.648;9.910;2022-10-15T02:25:21;56.25;;;35.08;;
31652;SDS011;18261;53.648;9.910;2022-10-15T02:27:48;55.92;;;34.60;;
31652;SDS011;18261;53.648;9.910;2022-10-15T02:30:16;61.67;;;36.38;;
31652;SDS011;18261;53.648;9.910;2022-10-15T02:32:43;56.92;;;37.28;;
31652;SDS011;18261;53.648;9.910;2022-10-15T02:35:10;63.70;;;37.80;;
31652;SDS011;18261;53.648;9.910;2022-10-15T02:37:36;64.15;;;38.58;;
31652;SDS011;18261;53.648;9.910;2022-10-15T02:40:03;61.53;;;37.97;;
31652;SDS011;18261;53.648;9.910;2022-10-15T02:42:29;64.00;;;38.40;;
31652;SDS011;18261;53.648;9.910;2022-10-15T02:44:55;68.28;;;38.30;;
31652;SDS011;18261;53.648;9.910;2022-10-15T02:47:21;67.88;;;39.50;;
31652;SDS011;18261;53.648;9.910;2022-10-15T02:49:47;58.42;;;35.95;;
31652;SDS011;18261;53.648;9.910;2022-10-15T02:52:13;59.13;;;36.85;;
31652;SDS011;18261;53.648;9.910;2022-10-15T02:54:39;62.22;;;38.53;;
31652;SDS011;18261;53.648;9.910;2022-10-15T02:57:05;61.47;;;37.70;;
31652;SDS011;18261;53.648;9.910;2022-10-15T02:59:31;62.33;;;37.75;;
31652;SDS011;18261;53.648;9.910;2022-10-15T03:01:57;58.88;;;37.28;;
31652;SDS011;18261;53.648;9.910;2022-10-15T03:04:23;61.95;;;38.05;;
31652;SDS011;18261;53.648;9.910;2022-10-15T03:06:49;65.22;;;38.60;;
31652;SDS011;18261;53.648;9.910;2022-10-15T03:09:15;63.13;;;36.35;;
31652;SDS011;18261;53.648;9.910;2022-10-15T03:11:41;63.58;;;36.70;;
31652;SDS011;18261;53.648;9.910;2022-10-15T03:14:07;56.83;;;34.83;;
31652;SDS011;18261;53.648;9.910;2022-10-15T03:16:33;60.70;;;35.92;;
31652;SDS011;18261;53.648;9.910;2022-10-15T03:18:58;59.13;;;35.00;;
31652;SDS011;18261;53.648;9.910;2022-10-15T03:21:24;55.80;;;33.03;;
31652;SDS011;18261;53.648;9.910;2022-10-15T03:23:52;57.30;;;33.60;;
31652;SDS011;18261;53.648;9.910;2022-10-15T03:26:18;61.17;;;36.30;;
31652;SDS011;18261;53.648;9.910;2022-10-15T03:28:44;61.25;;;35.83;;
31652;SDS011;18261;53.648;9.910;2022-10-15T03:31:10;53.60;;;32.53;;
31652;SDS011;18261;53.648;9.910;2022-10-15T03:33:38;59.95;;;33.80;;
31652;SDS011;18261;53.648;9.910;2022-10-15T03:36:04;56.88;;;32.60;;
31652;SDS011;18261;53.648;9.910;2022-10-15T03:38:30;65.53;;;33.53;;
31652;SDS011;18261;53.648;9.910;2022-10-15T03:40:56;57.72;;;31.02;;
31652;SDS011;18261;53.648;9.910;2022-10-15T03:43:23;65.00;;;32.78;;
31652;SDS011;18261;53.648;9.910;2022-10-15T03:45:49;57.22;;;30.83;;
31652;SDS011;18261;53.648;9.910;2022-10-15T03:48:15;54.00;;;30.83;;
31652;SDS011;18261;53.648;9.910;2022-10-15T03:50:41;53.08;;;28.98;;
31652;SDS011;18261;53.648;9.910;2022-10-15T03:53:07;58.53;;;30.67;;
31652;SDS011;18261;53.648;9.910;2022-10-15T03:55:33;60.63;;;31.42;;
31652;SDS011;18261;53.648;9.910;2022-10-15T03:57:59;59.83;;;29.83;;
31652;SDS011;18261;53.648;9.910;2022-10-15T04:00:25;53.25;;;30.40;;
31652;SDS011;18261;53.648;9.910;2022-10-15T04:02:51;53.17;;;30.35;;
31652;SDS011;18261;53.648;9.910;2022-10-15T04:05:17;53.25;;;29.17;;
31652;SDS011;18261;53.648;9.910;2022-10-15T04:07:43;55.38;;;30.33;;
31652;SDS011;18261;53.648;9.910;2022-10-15T04:10:09;50.45;;;28.25;;
31652;SDS011;18261;53.648;9.910;2022-10-15T04:12:35;54.50;;;27.98;;
31652;SDS011;18261;53.648;9.910;2022-10-15T04:15:01;56.10;;;29.83;;
31652;SDS011;18261;53.648;9.910;2022-10-15T04:17:27;57.45;;;30.00;;
31652;SDS011;18261;53.648;9.910;2022-10-15T04:19:53;46.30;;;26.45;;
31652;SDS011;18261;53.648;9.910;2022-10-15T04:22:19;52.90;;;29.80;;
31652;SDS011;18261;53.648;9.910;2022-10-15T04:24:45;56.22;;;27.75;;
31652;SDS011;18261;53.648;9.910;2022-10-15T04:27:11;59.50;;;31.38;;
31652;SDS011;18261;53.648;9.910;2022-10-15T04:29:38;52.15;;;28.27;;
31652;SDS011;18261;53.648;9.910;2022-10-15T04:32:04;57.97;;;30.42;;
31652;SDS011;18261;53.648;9.910;2022-10-15T04:34:30;56.67;;;30.60;;
31652;SDS011;18261;53.648;9.910;2022-10-15T04:36:56;65.07;;;31.40;;
31652;SDS011;18261;53.648;9.910;2022-10-15T04:39:22;63.08;;;33.47;;
31652;SDS011;18261;53.648;9.910;2022-10-15T04:41:48;63.35;;;33.30;;
31652;SDS011;18261;53.648;9.910;2022-10-15T04:44:14;66.65;;;31.58;;
31652;SDS011;18261;53.648;9.910;2022-10-15T04:46:40;63.85;;;34.38;;
31652;SDS011;18261;53.648;9.910;2022-10-15T04:49:06;66.45;;;34.33;;
31652;SDS011;18261;53.648;9.910;2022-10-15T04:51:32;66.68;;;35.35;;
31652;SDS011;18261;53.648;9.910;2022-10-15T04:53:58;62.80;;;33.08;;
31652;SDS011;18261;53.648;9.910;2022-10-15T04:56:25;76.65;;;36.13;;
31652;SDS011;18261;53.648;9.910;2022-10-15T04:58:51;64.80;;;35.55;;
31652;SDS011;18261;53.648;9.910;2022-10-15T05:01:18;74.40;;;35.20;;
31652;SDS011;18261;53.648;9.910;2022-10-15T05:03:45;71.65;;;34.70;;
31652;SDS011;18261;53.648;9.910;2022-10-15T05:06:13;79.88;;;38.15;;
31652;SDS011;18261;53.648;9.910;2022-10-15T05:08:39;78.13;;;38.13;;
31652;SDS011;18261;53.648;9.910;2022-10-15T05:11:10;78.70;;;38.72;;
31652;SDS011;18261;53.648;9.910;2022-10-15T05:13:36;88.63;;;40.25;;
31652;SDS011;18261;53.648;9.910;2022-10-15T05:16:15;93.72;;;40.90;;
31652;SDS011;18261;53.648;9.910;2022-10-15T05:18:42;90.82;;;42.45;;
31652;SDS011;18261;53.648;9.910;2022-10-15T05:21:08;95.55;;;41.95;;
31652;SDS011;18261;53.648;9.910;2022-10-15T05:23:35;96.93;;;42.38;;
31652;SDS011;18261;53.648;9.910;2022-10-15T05:26:02;94.78;;;44.17;;
31652;SDS011;18261;53.648;9.910;2022-10-15T05:28:28;95.20;;;42.58;;
31652;SDS011;18261;53.648;9.910;2022-10-15T05:30:55;97.45;;;43.10;;
31652;SDS011;18261;53.648;9.910;2022-10-15T05:33:21;92.60;;;39.63;;
31652;SDS011;18261;53.648;9.910;2022-10-15T05:35:47;97.00;;;40.67;;
31652;SDS011;18261;53.648;9.910;2022-10-15T05:38:13;93.70;;;41.40;;
31652;SDS011;18261;53.648;9.910;2022-10-15T05:40:39;105.47;;;46.40;;
31652;SDS011;18261;53.648;9.910;2022-10-15T05:43:05;99.68;;;44.35;;
31652;SDS011;18261;53.648;9.910;2022-10-15T05:45:31;102.53;;;44.17;;
31652;SDS011;18261;53.648;9.910;2022-10-15T05:47:57;94.13;;;43.67;;
31652;SDS011;18261;53.648;9.910;2022-10-15T05:50:23;95.45;;;44.05;;
31652;SDS011;18261;53.648;9.910;2022-10-15T05:52:49;103.30;;;44.58;;
31652;SDS011;18261;53.648;9.910;2022-10-15T05:55:15;82.85;;;40.90;;
31652;SDS011;18261;53.648;9.910;2022-10-15T05:57:41;91.45;;;40.42;;
31652;SDS011;18261;53.648;9.910;2022-10-15T06:00:07;95.53;;;42.53;;
31652;SDS011;18261;53.648;9.910;2022-10-15T06:02:33;90.47;;;41.50;;
31652;SDS011;18261;53.648;9.910;2022-10-15T06:04:59;97.75;;;42.75;;
31652;SDS011;18261;53.648;9.910;2022-10-15T06:07:25;86.78;;;42.00;;
31652;SDS011;18261;53.648;9.910;2022-10-15T06:09:51;88.25;;;40.70;;
31652;SDS011;18261;53.648;9.910;2022-10-15T06:12:17;84.38;;;39.45;;
31652;SDS011;18261;53.648;9.910;2022-10-15T06:14:43;91.22;;;41.65;;
31652;SDS011;18261;53.648;9.910;2022-10-15T06:17:09;89.15;;;42.85;;
31652;SDS011;18261;53.648;9.910;2022-10-15T06:19:35;93.82;;;43.60;;
31652;SDS011;18261;53.648;9.910;2022-10-15T06:22:01;95.63;;;46.50;;
31652;SDS011;18261;53.648;9.910;2022-10-15T06:24:27;96.70;;;45.78;;
31652;SDS011;18261;53.648;9.910;2022-10-15T06:26:53;105.57;;;48.85;;
31652;SDS011;18261;53.648;9.910;2022-10-15T06:29:19;95.28;;;44.35;;
31652;SDS011;18261;53.648;9.910;2022-10-15T06:31:45;109.75;;;49.03;;
31652;SDS011;18261;53.648;9.910;2022-10-15T06:34:11;98.57;;;46.30;;
31652;SDS011;18261;53.648;9.910;2022-10-15T06:36:37;107.60;;;50.97;;
31652;SDS011;18261;53.648;9.910;2022-10-15T06:39:03;100.68;;;47.45;;
31652;SDS011;18261;53.648;9.910;2022-10-15T06:41:29;102.05;;;48.45;;
31652;SDS011;18261;53.648;9.910;2022-10-15T06:43:54;102.05;;;50.35;;
31652;SDS011;18261;53.648;9.910;2022-10-15T06:46:20;106.72;;;50.83;;
31652;SDS011;18261;53.648;9.910;2022-10-15T06:48:46;110.38;;;52.15;;
31652;SDS011;18261;53.648;9.910;2022-10-15T06:51:13;105.97;;;51.03;;
31652;SDS011;18261;53.648;9.910;2022-10-15T06:53:39;119.88;;;53.67;;
31652;SDS011;18261;53.648;9.910;2022-10-15T06:56:07;113.30;;;52.28;;
31652;SDS011;18261;53.648;9.910;2022-10-15T06:58:33;113.05;;;52.08;;
31652;SDS011;18261;53.648;9.910;2022-10-15T07:01:00;113.78;;;53.55;;
31652;SDS011;18261;53.648;9.910;2022-10-15T07:03:26;115.97;;;54.17;;
31652;SDS011;18261;53.648;9.910;2022-10-15T07:05:52;121.60;;;54.42;;
31652;SDS011;18261;53.648;9.910;2022-10-15T07:08:18;114.35;;;51.20;;
31652;SDS011;18261;53.648;9.910;2022-10-15T07:10:44;108.35;;;51.35;;
31652;SDS011;18261;53.648;9.910;2022-10-15T07:13:11;114.03;;;50.78;;
31652;SDS011;18261;53.648;9.910;2022-10-15T07:15:37;115.30;;;51.45;;
31652;SDS011;18261;53.648;9.910;2022-10-15T07:18:03;110.60;;;50.55;;
31652;SDS011;18261;53.648;9.910;2022-10-15T07:20:29;106.15;;;48.95;;
31652;SDS011;18261;53.648;9.910;2022-10-15T07:22:58;106.07;;;50.40;;
31652;SDS011;18261;53.648;9.910;2022-10-15T07:25:25;108.82;;;48.25;;
31652;SDS011;18261;53.648;9.910;2022-10-15T07:27:51;110.90;;;50.28;;
31652;SDS011;18261;53.648;9.910;2022-10-15T07:30:19;107.93;;;48.88;;
31652;SDS011;18261;53.648;9.910;2022-10-15T07:32:45;106.53;;;48.42;;
31652;SDS011;18261;53.648;9.910;2022-10-15T07:35:11;124.38;;;50.15;;
31652;SDS011;18261;53.648;9.910;2022-10-15T07:37:37;109.45;;;50.45;;
31652;SDS011;18261;53.648;9.910;2022-10-15T07:40:03;114.55;;;48.67;;
31652;SDS011;18261;53.648;9.910;2022-10-15T07:42:29;112.60;;;50.45;;
31652;SDS011;18261;53.648;9.910;2022-10-15T07:44:55;107.40;;;47.55;;
31652;SDS011;18261;53.648;9.910;2022-10-15T07:47:21;108.93;;;48.08;;
31652;SDS011;18261;53.648;9.910;2022-10-15T07:49:47;113.00;;;47.70;;
31652;SDS011;18261;53.648;9.910;2022-10-15T07:52:13;97.60;;;47.60;;
31652;SDS011;18261;53.648;9.910;2022-10-15T07:54:39;103.65;;;46.78;;
31652;SDS011;18261;53.648;9.910;2022-10-15T07:57:05;107.82;;;46.92;;
31652;SDS011;18261;53.648;9.910;2022-10-15T07:59:31;99.32;;;45.17;;
31652;SDS011;18261;53.648;9.910;2022-10-15T08:01:57;97.18;;;45.42;;
31652;SDS011;18261;53.648;9.910;2022-10-15T08:04:23;90.20;;;44.22;;
31652;SDS011;18261;53.648;9.910;2022-10-15T08:06:49;91.32;;;42.67;;
31652;SDS011;18261;53.648;9.910;2022-10-15T08:09:15;84.53;;;40.85;;
31652;SDS011;18261;53.648;9.910;2022-10-15T08:11:41;78.03;;;39.28;;
31652;SDS011;18261;53.648;9.910;2022-10-15T08:14:07;70.72;;;35.95;;
31652;SDS011;18261;53.648;9.910;2022-10-15T08:16:33;78.78;;;38.30;;
31652;SDS011;18261;53.648;9.910;2022-10-15T08:18:59;76.35;;;38.20;;
31652;SDS011;18261;53.648;9.910;2022-10-15T08:21:25;72.85;;;36.72;;
31652;SDS011;18261;53.648;9.910;2022-10-15T08:23:51;70.15;;;38.33;;
31652;SDS011;18261;53.648;9.910;2022-10-15T08:26:17;70.40;;;36.58;;
31652;SDS011;18261;53.648;9.910;2022-10-15T08:28:43;69.57;;;35.55;;
31652;SDS011;18261;53.648;9.910;2022-10-15T08:31:09;70.13;;;34.67;;
31652;SDS011;18261;53.648;9.910;2022-10-15T08:33:36;70.97;;;33.55;;
31652;SDS011;18261;53.648;9.910;2022-10-15T08:36:05;67.15;;;33.30;;
31652;SDS011;18261;53.648;9.910;2022-10-15T08:38:32;63.88;;;34.50;;
31652;SDS011;18261;53.648;9.910;2022-10-15T08:40:59;64.07;;;32.25;;
31652;SDS011;18261;53.648;9.910;2022-10-15T08:46:00;63.00;;;33.05;;
31652;SDS011;18261;53.648;9.910;2022-10-15T08:48:30;67.22;;;34.65;;
31652;SDS011;18261;53.648;9.910;2022-10-15T08:51:09;66.60;;;32.92;;
31652;SDS011;18261;53.648;9.910;2022-10-15T08:53:37;71.53;;;35.42;;
31652;SDS011;18261;53.648;9.910;2022-10-15T08:56:04;65.63;;;33.85;;
31652;SDS011;18261;53.648;9.910;2022-10-15T08:58:42;62.25;;;33.92;;
31652;SDS011;18261;53.648;9.910;2022-10-15T09:06:39;61.03;;;31.75;;
31652;SDS011;18261;53.648;9.910;2022-10-15T09:14:15;49.10;;;24.92;;
31652;SDS011;18261;53.648;9.910;2022-10-15T09:16:43;44.55;;;23.73;;
31652;SDS011;18261;53.648;9.910;2022-10-15T09:19:20;41.67;;;23.27;;
31652;SDS011;18261;53.648;9.910;2022-10-15T09:21:47;47.53;;;24.70;;
31652;SDS011;18261;53.648;9.910;2022-10-15T09:24:16;40.53;;;23.75;;
31652;SDS011;18261;53.648;9.910;2022-10-15T09:26:50;45.28;;;25.33;;
31652;SDS011;18261;53.648;9.910;2022-10-15T09:29:20;47.00;;;25.27;;
31652;SDS011;18261;53.648;9.910;2022-10-15T09:32:02;43.60;;;24.70;;
31652;SDS011;18261;53.648;9.910;2022-10-15T09:37:04;48.20;;;25.15;;
31652;SDS011;18261;53.648;9.910;2022-10-15T09:39:34;37.30;;;21.42;;
31652;SDS011;18261;53.648;9.910;2022-10-15T09:44:40;41.70;;;22.27;;
31652;SDS011;18261;53.648;9.910;2022-10-15T09:47:21;43.78;;;20.67;;
31652;SDS011;18261;53.648;9.910;2022-10-15T09:49:47;39.63;;;21.40;;
31652;SDS011;18261;53.648;9.910;2022-10-15T09:52:38;41.20;;;21.55;;
31652;SDS011;18261;53.648;9.910;2022-10-15T09:57:35;38.78;;;22.88;;
31652;SDS011;18261;53.648;9.910;2022-10-15T10:00:08;34.95;;;19.92;;
31652;SDS011;18261;53.648;9.910;2022-10-15T10:02:35;40.10;;;21.48;;
31652;SDS011;18261;53.648;9.910;2022-10-15T10:08:25;33.47;;;18.83;;
31652;SDS011;18261;53.648;9.910;2022-10-15T10:10:53;32.20;;;19.30;;
31652;SDS011;18261;53.648;9.910;2022-10-15T10:13:21;33.72;;;20.33;;
31652;SDS011;18261;53.648;9.910;2022-10-15T10:15:47;37.40;;;19.23;;
31652;SDS011;18261;53.648;9.910;2022-10-15T10:18:17;35.58;;;19.55;;
31652;SDS011;18261;53.648;9.910;2022-10-15T10:20:57;31.63;;;16.40;;
31652;SDS011;18261;53.648;9.910;2022-10-15T10:23:24;29.88;;;16.83;;
31652;SDS011;18261;53.648;9.910;2022-10-15T10:25:54;33.53;;;16.13;;
31652;SDS011;18261;53.648;9.910;2022-10-15T10:28:24;33.13;;;18.33;;
31652;SDS011;18261;53.648;9.910;2022-10-15T10:33:27;24.23;;;13.70;;
31652;SDS011;18261;53.648;9.910;2022-10-15T10:35:54;35.03;;;17.30;;
31652;SDS011;18261;53.648;9.910;2022-10-15T10:40:53;31.45;;;16.65;;
31652;SDS011;18261;53.648;9.910;2022-10-15T10:43:26;40.28;;;17.25;;
31652;SDS011;18261;53.648;9.910;2022-10-15T10:51:16;29.60;;;13.60;;
31652;SDS011;18261;53.648;9.910;2022-10-15T10:53:50;32.03;;;14.90;;
31652;SDS011;18261;53.648;9.910;2022-10-15T10:56:20;28.38;;;13.88;;
31652;SDS011;18261;53.648;9.910;2022-10-15T10:58:46;24.88;;;12.55;;
31652;SDS011;18261;53.648;9.910;2022-10-15T11:01:13;29.75;;;14.27;;
31652;SDS011;18261;53.648;9.910;2022-10-15T11:03:41;24.27;;;11.07;;
31652;SDS011;18261;53.648;9.910;2022-10-15T11:08:41;16.67;;;9.23;;
31652;SDS011;18261;53.648;9.910;2022-10-15T11:11:15;20.35;;;9.63;;
31652;SDS011;18261;53.648;9.910;2022-10-15T11:16:48;19.60;;;8.63;;
31652;SDS011;18261;53.648;9.910;2022-10-15T11:19:18;14.57;;;7.40;;
31652;SDS011;18261;53.648;9.910;2022-10-15T11:27:12;13.38;;;6.60;;
31652;SDS011;18261;53.648;9.910;2022-10-15T11:32:12;15.90;;;8.13;;
31652;SDS011;18261;53.648;9.910;2022-10-15T11:37:14;14.73;;;7.18;;
31652;SDS011;18261;53.648;9.910;2022-10-15T11:47:39;12.93;;;6.00;;
31652;SDS011;18261;53.648;9.910;2022-10-15T11:50:29;12.73;;;5.32;;
31652;SDS011;18261;53.648;9.910;2022-10-15T11:53:07;12.20;;;4.90;;
31652;SDS011;18261;53.648;9.910;2022-10-15T11:58:31;11.57;;;4.43;;
31652;SDS011;18261;53.648;9.910;2022-10-15T12:01:04;9.07;;;4.25;;
31652;SDS011;18261;53.648;9.910;2022-10-15T12:03:34;13.57;;;4.95;;
31652;SDS011;18261;53.648;9.910;2022-10-15T12:06:02;9.57;;;4.13;;
31652;SDS011;18261;53.648;9.910;2022-10-15T12:08:31;9.15;;;3.55;;
31652;SDS011;18261;53.648;9.910;2022-10-15T12:11:03;8.82;;;4.05;;
31652;SDS011;18261;53.648;9.910;2022-10-15T12:18:28;12.30;;;4.30;;
31652;SDS011;18261;53.648;9.910;2022-10-15T12:20:56;9.38;;;4.18;;
31652;SDS011;18261;53.648;9.910;2022-10-15T12:25:52;10.25;;;4.05;;
31652;SDS011;18261;53.648;9.910;2022-10-15T12:28:21;13.23;;;4.53;;
31652;SDS011;18261;53.648;9.910;2022-10-15T12:30:56;11.20;;;4.57;;
31652;SDS011;18261;53.648;9.910;2022-10-15T12:33:32;10.60;;;3.50;;
31652;SDS011;18261;53.648;9.910;2022-10-15T12:35:59;10.63;;;4.28;;
31652;SDS011;18261;53.648;9.910;2022-10-15T12:38:30;8.05;;;4.35;;
31652;SDS011;18261;53.648;9.910;2022-10-15T12:40:58;11.38;;;4.50;;
31652;SDS011;18261;53.648;9.910;2022-10-15T12:43:25;8.52;;;4.70;;
31652;SDS011;18261;53.648;9.910;2022-10-15T12:45:53;9.45;;;4.03;;
31652;SDS011;18261;53.648;9.910;2022-10-15T12:50:45;8.40;;;3.53;;
31652;SDS011;18261;53.648;9.910;2022-10-15T12:53:28;9.73;;;4.00;;
31652;SDS011;18261;53.648;9.910;2022-10-15T12:58:37;9.65;;;4.00;;
31652;SDS011;18261;53.648;9.910;2022-10-15T13:01:26;7.93;;;3.92;;
31652;SDS011;18261;53.648;9.910;2022-10-15T13:03:52;7.50;;;4.35;;
31652;SDS011;18261;53.648;9.910;2022-10-15T13:11:26;6.32;;;4.22;;
31652;SDS011;18261;53.648;9.910;2022-10-15T13:14:54;10.95;;;4.43;;
31652;SDS011;18261;53.648;9.910;2022-10-15T13:16:48;13.43;;;5.85;;
31652;SDS011;18261;53.648;9.910;2022-10-15T13:19:18;12.30;;;5.60;;
31652;SDS011;18261;53.648;9.910;2022-10-15T13:24:16;15.02;;;6.40;;
31652;SDS011;18261;53.648;9.910;2022-10-15T13:26:42;12.63;;;6.47;;
31652;SDS011;18261;53.648;9.910;2022-10-15T13:29:15;12.85;;;6.53;;
31652;SDS011;18261;53.648;9.910;2022-10-15T13:31:41;13.18;;;6.38;;
31652;SDS011;18261;53.648;9.910;2022-10-15T13:34:18;14.55;;;7.18;;
31652;SDS011;18261;53.648;9.910;2022-10-15T13:36:46;11.40;;;5.60;;
31652;SDS011;18261;53.648;9.910;2022-10-15T13:41:47;10.68;;;6.13;;
31652;SDS011;18261;53.648;9.910;2022-10-15T13:44:23;11.80;;;6.35;;
31652;SDS011;18261;53.648;9.910;2022-10-15T13:46:49;16.48;;;6.40;;
31652;SDS011;18261;53.648;9.910;2022-10-15T13:49:16;12.57;;;5.85;;
31652;SDS011;18261;53.648;9.910;2022-10-15T13:51:43;15.68;;;8.45;;
31652;SDS011;18261;53.648;9.910;2022-10-15T13:54:31;20.00;;;6.35;;
31652;SDS011;18261;53.648;9.910;2022-10-15T13:56:57;14.15;;;7.00;;
31652;SDS011;18261;53.648;9.910;2022-10-15T13:59:26;15.80;;;7.43;;
31652;SDS011;18261;53.648;9.910;2022-10-15T14:01:53;16.65;;;7.03;;
31652;SDS011;18261;53.648;9.910;2022-10-15T14:04:26;13.77;;;7.65;;
31652;SDS011;18261;53.648;9.910;2022-10-15T14:06:54;14.80;;;6.72;;
31652;SDS011;18261;53.648;9.910;2022-10-15T14:09:24;13.80;;;6.15;;
31652;SDS011;18261;53.648;9.910;2022-10-15T14:11:52;10.85;;;6.50;;
31652;SDS011;18261;53.648;9.910;2022-10-15T14:14:51;14.07;;;6.03;;
31652;SDS011;18261;53.648;9.910;2022-10-15T14:17:12;15.55;;;8.82;;
31652;SDS011;18261;53.648;9.910;2022-10-15T14:19:55;22.15;;;9.75;;
31652;SDS011;18261;53.648;9.910;2022-10-15T14:22:22;17.33;;;10.52;;
31652;SDS011;18261;53.648;9.910;2022-10-15T14:24:50;17.40;;;9.63;;
31652;SDS011;18261;53.648;9.910;2022-10-15T14:27:19;18.40;;;9.55;;
31652;SDS011;18261;53.648;9.910;2022-10-15T14:29:45;16.45;;;10.00;;
31652;SDS011;18261;53.648;9.910;2022-10-15T14:32:25;20.00;;;9.60;;
31652;SDS011;18261;53.648;9.910;2022-10-15T14:34:52;30.63;;;15.98;;
31652;SDS011;18261;53.648;9.910;2022-10-15T14:47:36;30.42;;;15.65;;
31652;SDS011;18261;53.648;9.910;2022-10-15T14:50:02;23.45;;;15.05;;
31652;SDS011;18261;53.648;9.910;2022-10-15T14:52:30;25.65;;;13.65;;
31652;SDS011;18261;53.648;9.910;2022-10-15T14:57:29;20.98;;;12.95;;
31652;SDS011;18261;53.648;9.910;2022-10-15T14:59:55;23.88;;;13.13;;
31652;SDS011;18261;53.648;9.910;2022-10-15T15:02:25;20.60;;;13.02;;
31652;SDS011;18261;53.648;9.910;2022-10-15T15:05:02;20.75;;;12.63;;
31652;SDS011;18261;53.648;9.910;2022-10-15T15:07:30;27.33;;;14.35;;
31652;SDS011;18261;53.648;9.910;2022-10-15T15:09:56;23.38;;;15.52;;
31652;SDS011;18261;53.648;9.910;2022-10-15T15:12:23;23.10;;;14.75;;
31652;SDS011;18261;53.648;9.910;2022-10-15T15:14:49;24.65;;;15.73;;
31652;SDS011;18261;53.648;9.910;2022-10-15T15:17:20;26.25;;;15.50;;
31652;SDS011;18261;53.648;9.910;2022-10-15T15:19:46;26.08;;;14.90;;
31652;SDS011;18261;53.648;9.910;2022-10-15T15:22:13;28.30;;;17.65;;
31652;SDS011;18261;53.648;9.910;2022-10-15T15:24:40;23.30;;;14.95;;
31652;SDS011;18261;53.648;9.910;2022-10-15T15:27:07;26.90;;;16.70;;
31652;SDS011;18261;53.648;9.910;2022-10-15T15:29:35;26.40;;;16.02;;
31652;SDS011;18261;53.648;9.910;2022-10-15T15:32:00;27.02;;;18.23;;
31652;SDS011;18261;53.648;9.910;2022-10-15T15:34:26;23.80;;;17.10;;
31652;SDS011;18261;53.648;9.910;2022-10-15T15:36:52;27.88;;;16.70;;
31652;SDS011;18261;53.648;9.910;2022-10-15T15:39:18;48.63;;;29.17;;
31652;SDS011;18261;53.648;9.910;2022-10-15T15:41:45;26.77;;;17.63;;
31652;SDS011;18261;53.648;9.910;2022-10-15T15:44:12;26.40;;;15.98;;
31652;SDS011;18261;53.648;9.910;2022-10-15T15:46:38;34.65;;;16.13;;
31652;SDS011;18261;53.648;9.910;2022-10-15T15:49:04;23.15;;;15.20;;
31652;SDS011;18261;53.648;9.910;2022-10-15T15:51:30;28.00;;;15.68;;
31652;SDS011;18261;53.648;9.910;2022-10-15T15:53:56;33.47;;;17.02;;
31652;SDS011;18261;53.648;9.910;2022-10-15T15:56:23;26.13;;;15.48;;
31652;SDS011;18261;53.648;9.910;2022-10-15T15:58:49;23.70;;;15.15;;
31652;SDS011;18261;53.648;9.910;2022-10-15T16:01:16;18.52;;;13.00;;
31652;SDS011;18261;53.648;9.910;2022-10-15T16:03:42;22.98;;;14.35;;
31652;SDS011;18261;53.648;9.910;2022-10-15T16:06:08;23.42;;;15.05;;
31652;SDS011;18261;53.648;9.910;2022-10-15T16:08:34;19.70;;;13.77;;
31652;SDS011;18261;53.648;9.910;2022-10-15T16:11:01;22.50;;;15.98;;
31652;SDS011;18261;53.648;9.910;2022-10-15T16:13:27;19.98;;;13.63;;
31652;SDS011;18261;53.648;9.910;2022-10-15T16:15:56;24.20;;;13.05;;
31652;SDS011;18261;53.648;9.910;2022-10-15T16:18:23;21.65;;;15.40;;
31652;SDS011;18261;53.648;9.910;2022-10-15T16:20:49;27.15;;;16.17;;
31652;SDS011;18261;53.648;9.910;2022-10-15T16:23:15;21.63;;;15.50;;
31652;SDS011;18261;53.648;9.910;2022-10-15T16:25:41;23.38;;;15.50;;